createdAt,value
2023-02-15T00:00:23.486Z,99178.09
2023-02-15T00:02:25.359Z,99169.41
2023-02-15T00:04:47.118Z,99170.94
2023-02-15T00:06:48.736Z,99165.81
2023-02-15T00:08:50.086Z,99154.81
2023-02-15T00:10:51.382Z,99160.38
2023-02-15T00:12:52.723Z,99153.59
2023-02-15T00:14:54.076Z,99151.63
2023-02-15T00:16:55.812Z,99152.69
2023-02-15T00:18:57.160Z,99138.22
2023-02-15T00:20:58.491Z,99136.44
2023-02-15T00:22:59.832Z,99138.13
2023-02-15T00:25:01.131Z,99132.16
2023-02-15T00:27:02.557Z,99138.09
2023-02-15T00:29:04.035Z,99135.06
2023-02-15T00:31:05.429Z,99136.03
2023-02-15T00:33:06.820Z,99124.44
2023-02-15T00:35:08.308Z,99125.19
2023-02-15T00:37:09.671Z,99129.38
2023-02-15T00:39:11.110Z,99131.94
2023-02-15T00:41:12.418Z,99132.81
2023-02-15T00:43:13.717Z,99137.94
2023-02-15T00:45:17.273Z,99135.44
2023-02-15T00:47:18.664Z,99135.41
2023-02-15T00:49:19.958Z,99127.63
2023-02-15T00:51:24.077Z,99132.81
2023-02-15T00:53:25.385Z,99131.19
2023-02-15T00:55:26.715Z,99134.63
2023-02-15T00:57:28.030Z,99132.78
2023-02-15T00:59:29.399Z,99130.13
2023-02-15T01:01:30.781Z,99127.56
2023-02-15T01:03:32.108Z,99130.97
2023-02-15T01:05:33.445Z,99129.97
2023-02-15T01:07:34.763Z,99126.09
2023-02-15T01:09:36.062Z,99131.31
2023-02-15T01:11:37.380Z,99130.16
2023-02-15T01:13:38.704Z,99129.19
2023-02-15T01:15:41.872Z,99128.19
2023-02-15T01:17:46.717Z,99123.69
2023-02-15T01:19:48.084Z,99106.56
2023-02-15T01:21:49.377Z,99110.72
2023-02-15T01:23:50.681Z,99108.09
2023-02-15T01:25:52.016Z,99104.50
2023-02-15T01:27:53.402Z,99115.00
2023-02-15T01:29:54.748Z,99111.47
2023-02-15T01:31:56.166Z,99110.44
2023-02-15T01:33:57.493Z,99110.47
2023-02-15T01:35:59.253Z,99101.41
2023-02-15T01:38:00.900Z,99103.88
2023-02-15T01:40:02.274Z,99106.22
2023-02-15T01:42:03.677Z,99095.00
2023-02-15T01:44:05.033Z,99102.50
2023-02-15T01:46:06.336Z,99089.53
2023-02-15T01:48:07.644Z,99092.88
2023-02-15T01:50:09.011Z,99092.78
2023-02-15T01:52:10.347Z,99099.50
2023-02-15T01:54:11.665Z,99095.19
2023-02-15T01:56:12.956Z,99088.34
2023-02-15T01:58:15.087Z,99095.16
2023-02-15T02:00:18.088Z,99091.69
2023-02-15T02:02:21.824Z,99082.28
2023-02-15T02:04:23.175Z,99086.53
2023-02-15T02:06:26.015Z,99089.09
2023-02-15T02:08:27.717Z,99078.84
2023-02-15T02:10:29.050Z,99079.66
2023-02-15T02:12:30.783Z,99087.38
2023-02-15T02:14:32.142Z,99083.16
2023-02-15T02:16:33.441Z,99088.28
2023-02-15T02:18:34.751Z,99084.97
2023-02-15T02:20:36.123Z,99085.88
2023-02-15T02:22:37.439Z,99086.81
2023-02-15T02:24:38.733Z,99071.47
2023-02-15T02:26:40.067Z,99066.38
2023-02-15T02:28:41.374Z,99063.03
2023-02-15T02:30:42.771Z,99065.59
2023-02-15T02:32:44.075Z,99055.41
2023-02-15T02:34:45.413Z,99058.00
2023-02-15T02:36:46.742Z,99049.47
2023-02-15T02:38:48.038Z,99050.34
2023-02-15T02:40:49.374Z,99047.81
2023-02-15T02:42:50.683Z,99036.75
2023-02-15T02:44:52.011Z,99034.22
2023-02-15T02:46:53.441Z,99027.44
2023-02-15T02:48:54.877Z,99035.13
2023-02-15T02:50:56.235Z,99028.31
2023-02-15T02:52:57.572Z,99021.50
2023-02-15T02:54:58.887Z,99022.34
2023-02-15T02:57:00.199Z,99027.47
2023-02-15T02:59:02.168Z,99017.22
2023-02-15T03:01:06.767Z,99019.78
2023-02-15T03:03:08.417Z,99018.09
2023-02-15T03:05:09.747Z,99016.41
2023-02-15T03:07:11.049Z,99016.44
2023-02-15T03:09:15.351Z,99018.97
2023-02-15T03:11:16.696Z,99018.13
2023-02-15T03:13:17.996Z,99012.19
2023-02-15T03:15:19.339Z,99012.19
2023-02-15T03:17:20.677Z,99013.84
2023-02-15T03:19:21.974Z,99016.38
2023-02-15T03:21:23.353Z,99012.13
2023-02-15T03:23:24.740Z,99018.97
2023-02-15T03:25:26.079Z,99015.56
2023-02-15T03:27:27.368Z,99017.22
2023-02-15T03:29:29.915Z,99029.16
2023-02-15T03:31:31.341Z,99022.41
2023-02-15T03:33:32.680Z,99017.31
2023-02-15T03:35:33.970Z,99023.31
2023-02-15T03:37:35.305Z,99015.00
2023-02-15T03:39:36.738Z,99019.28
2023-02-15T03:41:38.051Z,99017.56
2023-02-15T03:43:39.422Z,99020.94
2023-02-15T03:45:55.397Z,99014.97
2023-02-15T03:47:56.754Z,99026.03
2023-02-15T03:49:58.672Z,99017.44
2023-02-15T03:51:59.955Z,99016.53
2023-02-15T03:54:02.226Z,99013.00
2023-02-15T03:56:03.858Z,99016.34
2023-02-15T03:58:24.176Z,99018.84
2023-02-15T04:00:44.200Z,99016.19
2023-02-15T04:02:45.557Z,99011.06
2023-02-15T04:04:46.867Z,99017.00
2023-02-15T04:06:48.165Z,99016.16
2023-02-15T04:09:07.981Z,99019.56
2023-02-15T04:11:09.292Z,99010.19
2023-02-15T04:13:10.638Z,99012.75
2023-02-15T04:15:30.648Z,99015.28
2023-02-15T04:17:31.938Z,99022.97
2023-02-15T04:19:51.823Z,99016.19
2023-02-15T04:22:11.730Z,99017.94
2023-02-15T04:24:31.674Z,99013.72
2023-02-15T04:26:32.988Z,99016.31
2023-02-15T04:28:34.272Z,99012.06
2023-02-15T04:30:35.625Z,99015.47
2023-02-15T04:32:36.986Z,99016.34
2023-02-15T04:34:38.293Z,99010.38
2023-02-15T04:36:39.591Z,99015.50
2023-02-15T04:38:40.931Z,99013.78
2023-02-15T04:40:42.302Z,99013.78
2023-02-15T04:42:43.685Z,99010.38
2023-02-15T04:44:44.990Z,99007.81
2023-02-15T04:46:46.332Z,99006.16
2023-02-15T04:48:47.636Z,99007.06
2023-02-15T04:50:49.107Z,99012.16
2023-02-15T04:52:50.618Z,99007.06
2023-02-15T04:54:52.025Z,99012.22
2023-02-15T04:56:53.355Z,99006.25
2023-02-15T04:58:54.648Z,99004.53
2023-02-15T05:00:56.010Z,99012.25
2023-02-15T05:02:57.405Z,99007.97
2023-02-15T05:04:58.732Z,99010.56
2023-02-15T05:07:00.142Z,99011.47
2023-02-15T05:09:02.185Z,99014.06
2023-02-15T05:11:03.492Z,99019.19
2023-02-15T05:13:04.802Z,99010.69
2023-02-15T05:15:06.084Z,99010.72
2023-02-15T05:17:07.393Z,99008.16
2023-02-15T05:19:08.811Z,99007.31
2023-02-15T05:21:10.187Z,99005.59
2023-02-15T05:23:14.505Z,98998.75
2023-02-15T05:25:34.775Z,99002.09
2023-02-15T05:27:54.855Z,98998.56
2023-02-15T05:29:56.228Z,98996.78
2023-02-15T05:31:57.900Z,98997.59
2023-02-15T05:33:59.303Z,98995.88
2023-02-15T05:36:02.153Z,98994.06
2023-02-15T05:38:03.867Z,98987.16
2023-02-15T05:40:05.207Z,98994.81
2023-02-15T05:42:06.531Z,98986.25
2023-02-15T05:44:07.866Z,98990.50
2023-02-15T05:46:09.181Z,98984.50
2023-02-15T05:48:10.524Z,98993.06
2023-02-15T05:50:12.330Z,98996.44
2023-02-15T05:52:13.648Z,98986.25
2023-02-15T05:54:14.984Z,98986.28
2023-02-15T05:56:16.319Z,98983.75
2023-02-15T05:58:17.647Z,98992.28
2023-02-15T06:00:18.971Z,98989.75
2023-02-15T06:02:23.349Z,99000.84
2023-02-15T06:04:25.054Z,98996.66
2023-02-15T06:06:26.361Z,99006.91
2023-02-15T06:08:27.650Z,99011.16
2023-02-15T06:10:28.979Z,99007.75
2023-02-15T06:12:30.287Z,99015.44
2023-02-15T06:14:31.649Z,99006.97
2023-02-15T06:16:33.039Z,99011.25
2023-02-15T06:18:34.349Z,99006.97
2023-02-15T06:20:35.695Z,99010.41
2023-02-15T06:22:36.999Z,99012.97
2023-02-15T06:24:38.559Z,99006.19
2023-02-15T06:26:39.915Z,99007.06
2023-02-15T06:28:42.140Z,99005.28
2023-02-15T06:30:43.545Z,99003.59
2023-02-15T06:32:45.032Z,99005.28
2023-02-15T06:34:47.516Z,99009.59
2023-02-15T06:36:50.024Z,99009.56
2023-02-15T06:38:51.361Z,99007.00
2023-02-15T06:40:52.743Z,99004.47
2023-02-15T06:42:54.058Z,99007.88
2023-02-15T06:44:55.448Z,99007.94
2023-02-15T06:46:56.797Z,98998.50
2023-02-15T06:48:58.121Z,99002.78
2023-02-15T06:50:59.452Z,99007.84
2023-02-15T06:53:00.783Z,99013.81
2023-02-15T06:55:02.119Z,99013.81
2023-02-15T06:57:03.467Z,99008.72
2023-02-15T06:59:04.758Z,99005.28
2023-02-15T07:01:06.097Z,99004.41
2023-02-15T07:03:07.454Z,99018.00
2023-02-15T07:05:08.931Z,99007.75
2023-02-15T07:07:10.491Z,99003.50
2023-02-15T07:09:11.797Z,99005.19
2023-02-15T07:11:32.063Z,98999.19
2023-02-15T07:13:33.415Z,99007.69
2023-02-15T07:15:34.756Z,99008.56
2023-02-15T07:17:36.672Z,99010.28
2023-02-15T07:19:38.304Z,99001.75
2023-02-15T07:21:39.635Z,99004.31
2023-02-15T07:23:40.955Z,99001.78
2023-02-15T07:25:42.295Z,99000.06
2023-02-15T07:27:44.765Z,98998.41
2023-02-15T07:29:46.052Z,98992.50
2023-02-15T07:31:47.358Z,98995.06
2023-02-15T07:33:48.716Z,98989.97
2023-02-15T07:35:50.037Z,98987.41
2023-02-15T07:37:51.369Z,98990.84
2023-02-15T07:39:52.683Z,98988.31
2023-02-15T07:41:53.985Z,98974.66
2023-02-15T07:43:55.328Z,98978.88
2023-02-15T07:45:56.671Z,98972.06
2023-02-15T07:47:57.979Z,98962.63
2023-02-15T07:49:59.315Z,98963.50
2023-02-15T07:52:00.634Z,98972.91
2023-02-15T07:54:01.966Z,98969.50
2023-02-15T07:56:03.800Z,98968.66
2023-02-15T07:58:05.220Z,98957.56
2023-02-15T08:00:06.559Z,98966.09
2023-02-15T08:02:07.843Z,98966.06
2023-02-15T08:04:10.524Z,98966.09
2023-02-15T08:06:15.048Z,98961.00
2023-02-15T08:08:31.668Z,98967.00
2023-02-15T08:10:51.688Z,98963.59
2023-02-15T08:12:53.015Z,98960.16
2023-02-15T08:14:54.303Z,98958.28
2023-02-15T08:17:00.126Z,98947.06
2023-02-15T08:19:02.247Z,98953.50
2023-02-15T08:21:05.782Z,98946.97
2023-02-15T08:23:07.077Z,98937.31
2023-02-15T08:25:08.380Z,98943.25
2023-02-15T08:27:09.735Z,98930.41
2023-02-15T08:29:11.108Z,98932.94
2023-02-15T08:31:12.484Z,98935.50
2023-02-15T08:33:13.878Z,98922.63
2023-02-15T08:35:15.193Z,98921.75
2023-02-15T08:37:16.503Z,98922.56
2023-02-15T08:39:17.807Z,98802.19
2023-02-15T08:41:19.922Z,98919.75
2023-02-15T08:43:21.221Z,98924.81
2023-02-15T08:45:22.636Z,98926.53
2023-02-15T08:47:23.996Z,98924.00
2023-02-15T08:49:25.315Z,98917.25
2023-02-15T08:51:26.710Z,98914.88
2023-02-15T08:53:28.064Z,98925.88
2023-02-15T08:55:29.360Z,98918.13
2023-02-15T08:57:30.733Z,98913.81
2023-02-15T08:59:32.025Z,98917.25
2023-02-15T09:01:33.398Z,98905.31
2023-02-15T09:03:34.763Z,98908.84
2023-02-15T09:05:36.043Z,98918.75
2023-02-15T09:07:37.590Z,98906.91
2023-02-15T09:09:38.892Z,98922.06
2023-02-15T09:11:40.204Z,98915.22
2023-02-15T09:13:41.872Z,98918.59
2023-02-15T09:15:43.176Z,98920.28
2023-02-15T09:17:44.524Z,98906.94
2023-02-15T09:19:45.818Z,98902.09
2023-02-15T09:21:47.125Z,98895.91
2023-02-15T09:23:48.421Z,98898.28
2023-02-15T09:25:49.754Z,98896.16
2023-02-15T09:27:51.049Z,98902.34
2023-02-15T09:29:52.394Z,98899.78
2023-02-15T09:31:54.707Z,98894.31
2023-02-15T09:33:56.084Z,98892.59
2023-02-15T09:35:58.051Z,98895.13
2023-02-15T09:37:59.340Z,98890.72
2023-02-15T09:40:02.158Z,98888.50
2023-02-15T09:42:03.486Z,98891.31
2023-02-15T09:44:04.826Z,98900.59
2023-02-15T09:46:06.230Z,98897.38
2023-02-15T09:48:07.587Z,98884.00
2023-02-15T09:50:09.943Z,98889.75
2023-02-15T09:52:11.259Z,98878.72
2023-02-15T09:54:12.552Z,98884.50
2023-02-15T09:56:13.853Z,98894.50
2023-02-15T09:58:15.145Z,98885.38
2023-02-15T10:00:16.634Z,98883.00
2023-02-15T10:02:17.972Z,98882.44
2023-02-15T10:04:19.279Z,98889.84
2023-02-15T10:06:20.868Z,98885.31
2023-02-15T10:08:22.213Z,98883.31
2023-02-15T10:10:26.512Z,98883.53
2023-02-15T10:12:27.867Z,98884.09
2023-02-15T10:14:29.460Z,98875.25
2023-02-15T10:16:30.807Z,98881.16
2023-02-15T10:18:32.133Z,98885.06
2023-02-15T10:20:33.475Z,98888.22
2023-02-15T10:22:34.771Z,98880.41
2023-02-15T10:24:40.500Z,98881.78
2023-02-15T10:26:42.264Z,98874.94
2023-02-15T10:28:43.570Z,98882.81
2023-02-15T10:30:44.941Z,98880.13
2023-02-15T10:32:46.316Z,98877.22
2023-02-15T10:34:47.615Z,98879.13
2023-02-15T10:36:48.913Z,98877.63
2023-02-15T10:38:50.254Z,98877.75
2023-02-15T10:40:51.553Z,98876.97
2023-02-15T10:42:52.856Z,98871.06
2023-02-15T10:44:54.172Z,98862.66
2023-02-15T10:46:55.483Z,98866.09
2023-02-15T10:48:56.852Z,98867.88
2023-02-15T10:50:58.188Z,98856.84
2023-02-15T10:52:59.725Z,98858.59
2023-02-15T10:55:01.091Z,98845.84
2023-02-15T10:57:02.436Z,98862.03
2023-02-15T10:59:04.065Z,98851.00
2023-02-15T11:01:05.670Z,98841.59
2023-02-15T11:03:07.176Z,98835.59
2023-02-15T11:05:09.766Z,98840.66
2023-02-15T11:07:11.163Z,98832.09
2023-02-15T11:09:13.843Z,98837.16
2023-02-15T11:11:15.151Z,98837.97
2023-02-15T11:13:16.486Z,98832.78
2023-02-15T11:15:17.827Z,98842.16
2023-02-15T11:17:19.136Z,98833.56
2023-02-15T11:19:20.475Z,98830.94
2023-02-15T11:21:21.782Z,98830.94
2023-02-15T11:23:23.112Z,98841.16
2023-02-15T11:25:24.445Z,98834.28
2023-02-15T11:27:25.760Z,98836.84
2023-02-15T11:29:27.097Z,98761.47
2023-02-15T11:31:28.441Z,98825.72
2023-02-15T11:33:29.824Z,98823.22
2023-02-15T11:35:31.165Z,98817.25
2023-02-15T11:37:32.491Z,98824.06
2023-02-15T11:39:33.832Z,98814.66
2023-02-15T11:41:35.249Z,98821.47
2023-02-15T11:43:36.584Z,98812.06
2023-02-15T11:45:39.367Z,98809.47
2023-02-15T11:47:40.682Z,98818.03
2023-02-15T11:49:41.972Z,98815.47
2023-02-15T11:51:43.412Z,98812.97
2023-02-15T11:53:44.815Z,98815.50
2023-02-15T11:55:46.151Z,98807.84
2023-02-15T11:57:47.443Z,98817.28
2023-02-15T11:59:48.777Z,98808.75
2023-02-15T12:01:50.108Z,98809.66
2023-02-15T12:03:51.530Z,98805.38
2023-02-15T12:05:52.891Z,98806.28
2023-02-15T12:07:54.212Z,98805.47
2023-02-15T12:09:57.272Z,98809.78
2023-02-15T12:11:58.736Z,98800.44
2023-02-15T12:14:00.182Z,98800.47
2023-02-15T12:16:02.190Z,98801.28
2023-02-15T12:18:03.543Z,98800.34
2023-02-15T12:20:04.883Z,98790.16
2023-02-15T12:22:08.036Z,98784.38
2023-02-15T12:24:10.630Z,98789.44
2023-02-15T12:26:11.976Z,98789.56
2023-02-15T12:28:13.314Z,98785.50
2023-02-15T12:30:14.686Z,98788.44
2023-02-15T12:32:16.065Z,98790.22
2023-02-15T12:34:17.657Z,98785.19
2023-02-15T12:36:19.001Z,98638.22
2023-02-15T12:38:20.326Z,98793.16
2023-02-15T12:40:21.773Z,98793.28
2023-02-15T12:42:23.144Z,98788.38
2023-02-15T12:44:27.061Z,98793.56
2023-02-15T12:46:28.411Z,98793.59
2023-02-15T12:48:29.770Z,98785.03
2023-02-15T12:50:35.173Z,98784.84
2023-02-15T12:52:36.636Z,98779.44
2023-02-15T12:54:39.435Z,98775.72
2023-02-15T12:56:40.832Z,98772.94
2023-02-15T12:58:42.202Z,98775.34
2023-02-15T13:00:43.618Z,98773.56
2023-02-15T13:02:44.967Z,98779.53
2023-02-15T13:04:46.324Z,98777.09
2023-02-15T13:06:47.822Z,98767.91
2023-02-15T13:08:49.131Z,98774.03
2023-02-15T13:10:50.435Z,98771.59
2023-02-15T13:12:55.041Z,98770.69
2023-02-15T13:14:57.065Z,98758.75
2023-02-15T13:16:59.270Z,98756.09
2023-02-15T13:19:00.623Z,98761.16
2023-02-15T13:21:02.577Z,98751.78
2023-02-15T13:23:06.105Z,98750.03
2023-02-15T13:25:07.453Z,98749.19
2023-02-15T13:27:15.444Z,98746.59
2023-02-15T13:29:17.464Z,98742.25
2023-02-15T13:31:18.866Z,98741.38
2023-02-15T13:33:20.257Z,98747.28
2023-02-15T13:35:21.743Z,98737.06
2023-02-15T13:41:26.360Z,98747.28
2023-02-15T13:43:27.697Z,98744.81
2023-02-15T13:45:31.468Z,98738.84
2023-02-15T13:47:32.810Z,98752.59
2023-02-15T13:49:34.099Z,98748.31
2023-02-15T13:51:35.440Z,98744.91
2023-02-15T13:53:36.895Z,98747.47
2023-02-15T13:55:38.293Z,98745.81
2023-02-15T13:57:39.585Z,98754.34
2023-02-15T13:59:41.708Z,98747.59
2023-02-15T14:01:43.380Z,98747.78
2023-02-15T14:03:44.703Z,98744.63
2023-02-15T14:05:46.555Z,98752.44
2023-02-15T14:07:47.903Z,98746.59
2023-02-15T14:09:49.212Z,98749.25
2023-02-15T14:11:50.545Z,98745.84
2023-02-15T14:13:51.878Z,98738.22
2023-02-15T14:15:53.172Z,98742.47
2023-02-15T14:17:54.471Z,98730.59
2023-02-15T14:19:55.989Z,98737.41
2023-02-15T14:21:57.283Z,98729.72
2023-02-15T14:23:58.628Z,98727.16
2023-02-15T14:25:59.923Z,98731.47
2023-02-15T14:28:01.273Z,98745.13
2023-02-15T14:30:02.735Z,98744.22
2023-02-15T14:32:04.407Z,98743.28
2023-02-15T14:34:05.827Z,98741.53
2023-02-15T14:36:07.464Z,98741.50
2023-02-15T14:38:08.860Z,98743.94
2023-02-15T14:40:29.073Z,98748.16
2023-02-15T14:42:30.903Z,98750.75
2023-02-15T14:44:32.344Z,98752.47
2023-02-15T14:46:33.687Z,98761.91
2023-02-15T14:48:34.987Z,98762.81
2023-02-15T14:50:38.260Z,98764.56
2023-02-15T14:52:39.579Z,98762.06
2023-02-15T14:54:40.879Z,98754.47
2023-02-15T14:56:42.181Z,98757.09
2023-02-15T14:58:43.479Z,98751.16
2023-02-15T15:00:44.846Z,98754.59
2023-02-15T15:02:49.661Z,98755.53
2023-02-15T15:04:51.127Z,98646.47
2023-02-15T15:06:52.420Z,98749.69
2023-02-15T15:08:56.716Z,98745.44
2023-02-15T15:10:58.023Z,98746.34
2023-02-15T15:12:59.327Z,98748.97
2023-02-15T15:15:00.663Z,98754.06
2023-02-15T15:17:02.823Z,98748.13
2023-02-15T15:19:04.252Z,98745.63
2023-02-15T15:21:05.607Z,98749.91
2023-02-15T15:23:06.904Z,98749.94
2023-02-15T15:25:08.205Z,98744.00
2023-02-15T15:27:10.288Z,98739.78
2023-02-15T15:29:11.591Z,98746.59
2023-02-15T15:31:12.997Z,98738.09
2023-02-15T15:33:14.399Z,98738.94
2023-02-15T15:35:15.748Z,98744.94
2023-02-15T15:37:17.098Z,98737.25
2023-02-15T15:39:18.535Z,98729.59
2023-02-15T15:41:20.678Z,98729.59
2023-02-15T15:43:22.016Z,98724.44
2023-02-15T15:45:23.363Z,98721.00
2023-02-15T15:47:24.777Z,98727.75
2023-02-15T15:49:26.232Z,98720.03
2023-02-15T15:51:27.619Z,98709.72
2023-02-15T15:53:28.906Z,98703.63
2023-02-15T15:55:30.235Z,98697.56
2023-02-15T15:57:31.552Z,98708.56
2023-02-15T15:59:32.871Z,98700.91
2023-02-15T16:01:34.335Z,98705.13
2023-02-15T16:03:35.704Z,98713.63
2023-02-15T16:05:37.213Z,98705.09
2023-02-15T16:07:38.556Z,98707.59
2023-02-15T16:09:39.931Z,98709.31
2023-02-15T16:11:41.251Z,98709.34
2023-02-15T16:13:42.571Z,98699.19
2023-02-15T16:15:44.115Z,98699.25
2023-02-15T16:17:45.516Z,98703.56
2023-02-15T16:19:46.850Z,98697.69
2023-02-15T16:21:48.151Z,98698.56
2023-02-15T16:23:49.459Z,98701.16
2023-02-15T16:25:50.804Z,98690.16
2023-02-15T16:27:52.692Z,98683.41
2023-02-15T16:29:54.145Z,98684.31
2023-02-15T16:31:55.511Z,98692.00
2023-02-15T16:33:56.843Z,98676.69
2023-02-15T16:35:58.279Z,98678.41
2023-02-15T16:37:59.700Z,98679.28
2023-02-15T16:40:01.006Z,98682.72
2023-02-15T16:42:05.224Z,98688.72
2023-02-15T16:44:06.522Z,98685.31
2023-02-15T16:46:07.836Z,98675.97
2023-02-15T16:48:09.139Z,98673.44
2023-02-15T16:50:10.549Z,98679.41
2023-02-15T16:52:12.010Z,98672.59
2023-02-15T16:54:13.343Z,98687.09
2023-02-15T16:56:14.688Z,98675.19
2023-02-15T16:58:16.067Z,98671.78
2023-02-15T17:00:17.396Z,98670.03
2023-02-15T17:02:40.125Z,98676.84
2023-02-15T17:04:40.579Z,98675.94
2023-02-15T17:06:42.066Z,98682.69
2023-02-15T17:08:43.388Z,98684.31
2023-02-15T17:10:45.992Z,98691.91
2023-02-15T17:12:47.759Z,98687.53
2023-02-15T17:14:54.817Z,98699.34
2023-02-15T17:16:57.409Z,98677.13
2023-02-15T17:18:59.860Z,98687.31
2023-02-15T17:21:02.186Z,98686.41
2023-02-15T17:23:03.552Z,98683.81
2023-02-15T17:25:05.466Z,98688.03
2023-02-15T17:27:06.812Z,98682.06
2023-02-15T17:29:08.113Z,98687.19
2023-02-15T17:31:09.615Z,98684.72
2023-02-15T17:33:12.495Z,98675.41
2023-02-15T17:35:19.927Z,98678.00
2023-02-15T17:37:21.281Z,98676.34
2023-02-15T17:39:23.371Z,98671.31
2023-02-15T17:41:24.683Z,98673.06
2023-02-15T17:43:25.968Z,98676.53
2023-02-15T17:45:27.355Z,98672.34
2023-02-15T17:47:30.131Z,98674.13
2023-02-15T17:49:35.369Z,98678.41
2023-02-15T17:51:37.441Z,98678.50
2023-02-15T17:53:38.746Z,98679.38
2023-02-15T17:55:40.085Z,98673.41
2023-02-15T17:57:41.424Z,98674.31
2023-02-15T18:00:01.397Z,98689.63
2023-02-15T18:02:21.612Z,98684.56
2023-02-15T18:04:41.546Z,98678.63
2023-02-15T18:07:01.497Z,98668.41
2023-02-15T18:09:27.957Z,98668.44
2023-02-15T18:11:38.211Z,98658.22
2023-02-15T18:13:39.562Z,98665.88
2023-02-15T18:15:40.910Z,98660.78
2023-02-15T18:17:42.236Z,98658.22
2023-02-15T18:19:46.509Z,98652.25
2023-02-15T18:21:47.930Z,98663.41
2023-02-15T18:23:49.271Z,98669.44
2023-02-15T18:25:50.573Z,98659.28
2023-02-15T18:27:54.568Z,98667.84
2023-02-15T18:29:56.538Z,98679.84
2023-02-15T18:31:58.189Z,98673.91
2023-02-15T18:33:59.541Z,98669.56
2023-02-15T18:36:00.884Z,98664.31
2023-02-15T18:38:02.363Z,98662.47
2023-02-15T18:40:04.301Z,98660.59
2023-02-15T18:42:08.359Z,98672.38
2023-02-15T18:44:09.661Z,98671.41
2023-02-15T18:46:11.018Z,98665.38
2023-02-15T18:48:17.990Z,98665.31
2023-02-15T18:50:19.310Z,98652.44
2023-02-15T18:52:20.614Z,98655.78
2023-02-15T18:54:21.919Z,98655.72
2023-02-15T18:56:23.251Z,98656.56
2023-02-15T18:58:25.028Z,98657.34
2023-02-15T19:00:26.727Z,98664.16
2023-02-15T19:02:28.140Z,98675.25
2023-02-15T19:04:29.560Z,98676.13
2023-02-15T19:06:31.008Z,98669.31
2023-02-15T19:08:32.328Z,98671.03
2023-02-15T19:10:33.829Z,98670.22
2023-02-15T19:12:35.175Z,98660.09
2023-02-15T19:14:36.550Z,98657.66
2023-02-15T19:16:40.834Z,98663.69
2023-02-15T19:18:42.166Z,98657.75
2023-02-15T19:20:46.439Z,98657.78
2023-02-15T19:22:47.762Z,98655.31
2023-02-15T19:24:49.112Z,98659.59
2023-02-15T19:26:50.719Z,98663.06
2023-02-15T19:28:52.020Z,98656.31
2023-02-15T19:30:53.393Z,98659.75
2023-02-15T19:32:54.729Z,98652.16
2023-02-15T19:34:56.021Z,98647.03
2023-02-15T19:36:57.376Z,98644.53
2023-02-15T19:38:58.719Z,98632.63
2023-02-15T19:41:00.050Z,98636.91
2023-02-15T19:43:02.227Z,98646.31
2023-02-15T19:45:03.907Z,98646.31
2023-02-15T19:47:05.364Z,98645.47
2023-02-15T19:49:06.670Z,98651.44
2023-02-15T19:51:17.149Z,98638.66
2023-02-15T19:53:18.446Z,98642.13
2023-02-15T19:55:22.392Z,98645.53
2023-02-15T19:57:23.815Z,98645.53
2023-02-15T19:59:25.175Z,98633.59
2023-02-15T20:01:27.206Z,98638.66
2023-02-15T20:03:28.564Z,98633.56
2023-02-15T20:05:29.925Z,98632.63
2023-02-15T20:07:31.254Z,98622.31
2023-02-15T20:09:32.691Z,98619.63
2023-02-15T20:11:34.024Z,98627.19
2023-02-15T20:13:35.313Z,98621.09
2023-02-15T20:15:37.588Z,98622.66
2023-02-15T20:17:38.903Z,98625.97
2023-02-15T20:19:41.577Z,98623.34
2023-02-15T20:21:42.878Z,98620.75
2023-02-15T20:23:47.369Z,98612.22
2023-02-15T20:25:48.680Z,98613.84
2023-02-15T20:27:50.088Z,98616.44
2023-02-15T20:29:56.936Z,98596.91
2023-02-15T20:32:01.374Z,98602.03
2023-02-15T20:34:02.808Z,98598.69
2023-02-15T20:36:04.160Z,98593.63
2023-02-15T20:38:05.555Z,98594.56
2023-02-15T20:40:06.947Z,98587.84
2023-02-15T20:42:08.262Z,98582.78
2023-02-15T20:44:12.213Z,98596.44
2023-02-15T20:46:13.731Z,98588.84
2023-02-15T20:48:15.071Z,98589.75
2023-02-15T20:50:16.379Z,98594.91
2023-02-15T20:52:18.173Z,98590.75
2023-02-15T20:54:19.492Z,98586.53
2023-02-15T20:56:20.827Z,98590.84
2023-02-15T20:58:22.290Z,98582.34
2023-02-15T21:00:23.957Z,98585.75
2023-02-15T21:02:25.249Z,98583.25
2023-02-15T21:04:26.616Z,98584.13
2023-02-15T21:06:27.926Z,98596.06
2023-02-15T21:08:29.228Z,98583.31
2023-02-15T21:10:30.734Z,98590.13
2023-02-15T21:12:32.627Z,98585.91
2023-02-15T21:14:37.745Z,98586.75
2023-02-15T21:16:39.049Z,98594.44
2023-02-15T21:18:42.155Z,98588.47
2023-02-15T21:20:43.456Z,98587.63
2023-02-15T21:22:44.783Z,98574.84
2023-02-15T21:24:46.133Z,98572.25
2023-02-15T21:26:47.486Z,98585.91
2023-02-15T21:28:48.855Z,98582.44
2023-02-15T21:30:50.187Z,98577.22
2023-02-15T21:32:51.507Z,98572.88
2023-02-15T21:34:52.819Z,98583.81
2023-02-15T21:36:54.196Z,98581.19
2023-02-15T21:38:56.056Z,98585.31
2023-02-15T21:41:17.320Z,98586.13
2023-02-15T21:43:37.368Z,98580.09
2023-02-15T21:45:57.253Z,98590.25
2023-02-15T21:48:01.293Z,98586.00
2023-02-15T21:50:22.607Z,98580.94
2023-02-15T21:52:24.001Z,98584.34
2023-02-15T21:54:28.196Z,98580.16
2023-02-15T21:56:29.609Z,98590.44
2023-02-15T21:58:31.483Z,98587.06
2023-02-15T22:00:33.830Z,98583.75
2023-02-15T22:02:35.151Z,98580.38
2023-02-15T22:04:36.445Z,98583.00
2023-02-15T22:06:37.748Z,98581.34
2023-02-15T22:08:39.072Z,98580.53
2023-02-15T22:10:40.472Z,98574.66
2023-02-15T22:12:41.775Z,98586.66
2023-02-15T22:14:43.095Z,98576.47
2023-02-15T22:16:44.472Z,98579.94
2023-02-15T22:18:45.813Z,98577.38
2023-02-15T22:20:47.129Z,98574.63
2023-02-15T22:22:48.438Z,98580.63
2023-02-15T22:24:49.752Z,98577.84
2023-02-15T22:26:51.088Z,98575.88
2023-02-15T22:28:52.429Z,98566.22
2023-02-15T22:30:53.755Z,98568.34
2023-02-15T22:32:55.135Z,98556.72
2023-02-15T22:34:56.427Z,98561.88
2023-02-15T22:36:57.796Z,98548.66
2023-02-15T22:38:59.155Z,98556.88
2023-02-15T22:41:03.178Z,98552.84
2023-02-15T22:43:04.671Z,98537.38
2023-02-15T22:45:08.137Z,98543.25
2023-02-15T22:47:09.621Z,98541.78
2023-02-15T22:49:10.915Z,98538.50
2023-02-15T22:51:12.563Z,98541.81
2023-02-15T22:53:13.895Z,98537.16
2023-02-15T22:55:15.481Z,98544.47
2023-02-15T22:57:17.042Z,98538.06
2023-02-15T22:59:18.407Z,98545.56
2023-02-15T23:01:19.734Z,98543.13
2023-02-15T23:03:21.065Z,98544.97
2023-02-15T23:05:22.489Z,98546.63
2023-02-15T23:07:23.890Z,98551.66
2023-02-15T23:09:25.195Z,98546.16
2023-02-15T23:11:26.499Z,98553.28
2023-02-15T23:13:27.837Z,98550.06
2023-02-15T23:15:29.240Z,98548.34
2023-02-15T23:17:30.545Z,98556.03
2023-02-15T23:19:32.194Z,98555.97
2023-02-15T23:21:33.714Z,98553.63
2023-02-15T23:23:35.007Z,98545.09
2023-02-15T23:25:36.427Z,98548.69
2023-02-15T23:27:56.404Z,98549.06
2023-02-15T23:29:57.808Z,98541.44
2023-02-15T23:31:59.209Z,98537.16
2023-02-15T23:34:00.592Z,98530.97
2023-02-15T23:36:02.272Z,98533.25
2023-02-15T23:38:03.587Z,98528.41
2023-02-15T23:40:23.391Z,98521.69
2023-02-15T23:42:24.720Z,98533.69
2023-02-15T23:44:26.022Z,98543.09
2023-02-15T23:46:27.375Z,98551.28
2023-02-15T23:48:31.531Z,98543.22
2023-02-15T23:50:32.878Z,98549.56
2023-02-15T23:52:34.191Z,98553.38
2023-02-15T23:54:35.544Z,98557.19
2023-02-15T23:56:36.836Z,98549.41
2023-02-15T23:58:38.158Z,98556.03
